Bezig met laden...

Meteo / TAF / Notam

België
  • EBAW - ANTWERPEN / DEURNE
    EBAW 010720Z 34012G22KT 310V010 9999 -SHRA FEW010 BKN014 09/06 Q1015 NOSIG
    TAF EBAW 010505Z 0106/0115 35012KT 9999 BKN020 PROB40 TEMPO 0106/0110 34015G25KT 4000 SHRA SHGS SCT008 BKN012CB
  • EBBE - BEAUVECHAIN
    EBBE 010725Z 32011KT 4000 RA SCT006 BKN009 BKN012 07/07 Q1014 YLO GRN TEMPO YLO
    TAF EBBE 010541Z 0107/0116 32010G20KT 9999 SCT013 BKN018 TEMPO 0107/0116 34015G25KT 7000 -SHRA BKN010TCU OVC014 TEMPO 0107/0112 SCT006 BKN010 OVC012
  • EBBL - KLEINE-BROGEL
    EBBL 010744Z VRB02KT 1000 SCT004 BKN013 07/07 Q1013 AMB YLO TEMPO GRN
    TAF AMD EBBL 010557Z 0107/0116 31008KT 9999 BKN017 TEMPO 0107/0116 36010G20KT 5000 -SHRA-RA SCT008 BKN015TCU PROB40 TEMPO 0107/0114 01015G25KT 4000 SHRA SCT007 SCT012TCU PROB30 TEMPO 0107/0112 36015G32KT 3500 SHRA SCT006 BKN010TCU BECMG 0108/0110 35015G25
  • EBBR - BRUSSELS / BRUSSELS-NATIONAL
    EBBR 010720Z 33010KT 8000 -RA SCT007 BKN012 08/06 Q1015 NOSIG
    TAF EBBR 010501Z 0106/0212 34012KT 9999 BKN020 PROB40 TEMPO 0106/0110 34015G25KT 4000 SHRA SHGS SCT006 BKN010CB BECMG 0118/0120 SCT008 BKN012 BECMG 0200/0202 04006KT 3000 BR BKN006 PROB40 TEMPO 0203/0210 1500 BR BKN004
  • EBCI - CHARLEROI / BRUSSELS SOUTH
    EBCI 010720Z 30007KT 260V340 5000 -SHRA FEW003 BKN006TCU OVC007 06/05 Q1015 TEMPO 3000 SHRA
    TAF EBCI 010501Z 0106/0212 28010KT 9999 BKN020 PROB40 TEMPO 0106/0112 34015G25KT 4000 SHRA SHGS SCT004 BKN009CB BECMG 0106/0108 34013KT BECMG 0118/0120 4000 BR BKN006 BECMG 0122/0124 04006KT PROB40 TEMPO 0202/0210 1200 BCFG BR BKN002
  • EBCV - CHIÈVRES
    EBCV 010725Z AUTO 32012KT //// OVC014/// 07/06 Q1017 GRN
    TAF EBCV 010541Z 0107/0116 31008KT 9000 BKN025 TEMPO 0107/0113 7000 -RA BKN013 OVC030 TEMPO 0113/0116 36012G22KT 5000 -SHRA SCT020 PROB30 TEMPO 0113/0116 36015G25KT 3500 SHRAGS BKN017TCU BY EBWM
  • EBDT - DIEST / SCHAFFEN
    EBDT 010725Z AUTO 32010KT 9999 -RA SCT005/// BKN007/// BKN010/// 08/07 Q1014 YLO
    TAF EBDT 301541Z 3019/0107 21008KT 4000 BR SCT005 BKN008 TEMPO 3019/3023 1800 -RADZ -DZ BR BKN005 OVC007 TEMPO 3019/3023 1200 DZ RADZ BKN003 OVC005 BECMG 3023/0102 30009KT 4500 BR FEW006 SCT012 BKN035 TEMPO 0101/0107 2200 SHRA SCT010 BKN012
  • EBFN - KOKSIJDE
    EBFN 010725Z 35020G32KT 9999 FEW025 SCT045 09/04 Q1019 BLU BLU TEMPO WHT
    TAF EBFN 010541Z 0107/0116 35025G35KT 9999 FEW020 SCT030 PROB30 TEMPO 0107/0109 35025G35KT 4000 SHRA SCT010 BKN012TCU PROB30 TEMPO 0111/0114 6000 -SHRA SCT020 BKN025 BECMG 0113/0115 010020G030KT
  • EBFS - FLORENNES
    EBFS 010725Z 30008KT 3000 -RA SCT004 BKN006 BKN010 05/05 Q1015 YLO YLO
    TAF AMD EBFS 010615Z 0107/0116 34010G20KT 9999 -SHRA -RA SCT005 BKN010TCU BKN015 TEMPO 0110/0113 35015G27KT 3000 SHRA RA SCT002 BKN008TCU BKN008 BECMG 0113/0115 34010G20KT 9999 SCT010 BKN015 TEMPO0113/0116 34010G25KT 6000 BKN010TCU BKN015
  • EBLB - ELSENBORN
    EBLB 010733Z AUTO 30005KT 0750 +DZ OVC003/// 02/02 Q1012 RED
  • EBLG - LIÈGE / LIÈGE
    EBLG 010720Z 26006KT 6000 -SHRA FEW003 BKN004 BKN010TCU 05/05 Q1014 TEMPO 2500 SHRA BECMG BKN005 BKN
    TAF EBLG 010501Z 0106/0212 28010KT 9999 BKN015 PROB40 TEMPO 0106/0115 34015G25KT 4000 SHRA SHGS SCT004 BKN009CB BECMG 0108/0110 34013KT BECMG 0116/0118 4000 BR -DZ BKN006 BECMG 0121/0123 04005KT PROB40 TEMPO 0201/0210 1200 BCFG BR BKN002
  • EBOS - OOSTENDE-BRUGGE / OOSTENDE
    EBOS 010720Z 35018G28KT 9999 FEW025 SCT040 09/05 Q1018 NOSIG
    TAF EBOS 010501Z 0106/0212 35022KT 9999 BKN020 TEMPO 0119/0124 4000 SHRA RA BKN014 BECMG 0120/0122 02012KT BECMG 0204/0206 08005KT BECMG 0206/0208 4500 BR BKN010
Nederland
  • EHAK - A12-CPP HELIPAD OIL 2011
    EHAK 010725Z AUTO 36037KT 340V050 9999 FEW020/// BKN024/// BKN027/// 09/05 Q1017
  • EHAM - AMSTERDAM AIRPORT SCHIPHOL
    EHAM 010725Z 35013KT 320V020 8000 -SHRA FEW010 FEW016CB BKN022 09/07 Q1015 TEMPO 35017G27KT 6000 SHR
    TAF EHAM 010512Z 0106/0212 34015G25KT 9999 SCT018 BKN030 TEMPO 0106/0110 35022G35KT 6000 SHRA SCT018CB BKN030 BECMG 0114/0116 36008KT BECMG 0122/0201 04005KT 4500 BR SCT005 BKN008 PROB30 0200/0212 2000 -DZ SCT002 BKN003
  • EHBK - MAASTRICHT AACHEN AIRPORT
    EHBK 010725Z AUTO 24005KT 210V280 3600 BR OVC001 06/06 Q1013 BECMG 2500 TEMPO BKN003
    TAF COR EHBK 010740Z 0107/0212 25005KT 4000 BR BKN004 TEMPO 0107/0111 2000 BKN002 TEMPO 0109/0115 RA SHRA BR BKN006 SCT015CB BECMG 0111/0113 33012KT BKN018 BECMG 0118/0121 03008KT 2000 BR BKN004 PROB40 0119/0212 0800 -DZ FG BKN001
  • EHDL - DEELEN AIR BASE
    EHDL 010725Z AUTO 33006KT 290V020 4700 -DZ SCT002 BKN004 BKN005 FEW015CB 07/07 Q1013 REDZ AMB
  • EHDV - D15-FA-1 SEA
    EHDV 010725Z AUTO 36037KT //// // FEW018/// SCT027/// 09/05 Q1019 RE//
  • EHEH - EINDHOVEN AIRPORT
    EHEH 010725Z AUTO 32005KT 280V010 2400 R03/2400D -RA FEW002 SCT003 BKN006 FEW015CB 08/08 Q1013 RERA
    TAF EHEH 010544Z 0106/0212 25006KT 4500 -RA SCT012 BKN028 PROB40 TEMPO 0106/0111 33012G24KT 2500 RA SHRA SCT005 FEW010CB BKN014 BECMG 0110/0112 36012KT 9999 SCT018 SCT035 BECMG 0117/0119 03006KT 3000 -DZRA SCT005 BKN010 PROB30 TEMPO 0119/0212 1500 DZ SCT0
  • EHFD - F-3 PLATFORM
    EHFD 010725Z AUTO /////KT 9999 // FEW020/// SCT023/// BKN027/// 10/05 Q1016 RE//
  • EHFS - VLISSINGEN
    EHFS 010725Z AUTO 35019G33KT 300V040 6000 -SHRA FEW018 BKN022 BKN026 09/06 Q1017 REDZ
  • EHGG - GRONINGEN AIRPORT EELDE
    EHGG 010725Z AUTO 33008KT 290V020 9999 -RA FEW015CB BKN019 BKN023 OVC029 08/07 Q1012 TEMPO 6000 SHRA
    TAF EHGG 010522Z 0106/0212 34014KT 9999 BKN025 TEMPO 0106/0109 6000 SHRA RA BKN012 SCT015CB PROB30 0106/0107 4000 BR BKN005 BECMG 0116/0119 03010KT 4000 BR BKN008 BECMG 0119/0121 06007KT PROB40 0121/0212 2000 -DZ BR BKN002
  • EHGR - GILZE-RIJEN AIR BASE
    EHGR 010738Z AUTO 34013KT 280V050 7000 DZ SCT007 BKN008 BKN009 FEW015CB 08/08 Q1014 GRN
    TAF EHGR 010536Z 0106/0118 33010G20KT 4500 -RA SCT010 BKN026 PROB40 TEMPO 0106/0108 35014G26KT 3000 RA SHRA SCT005 FEW012CB BKN018 BECMG 0109/0111 36012KT 9999 FEW018 SCT035
  • EHJA - J6-A SEA, NETHERLANDS
    EHJA 010725Z AUTO 36028KT //// // FEW017/// SCT022/// 10/05 Q1018 RE//
  • EHJR - K13-A PLATFORM
    EHJR 010725Z AUTO 00000KT //// // ///////// 10/04 Q1018 RE// W///H43
  • EHKD - DEN HELDER AIRPORT
    EHKD 010741Z AUTO 36015KT 300V040 9999 FEW022 SCT026 BKN029 09/05 Q1015 BLU NOSIG
    TAF EHKD 010506Z 0106/0118 35015G25KT 9999 FEW018 BKN035 PROB40 TEMPO 0106/0108 35018G32KT 4000 RA SHRA SCT012 FEW018CB BKN022 BECMG 0107/0109 36013KT
  • EHKV - K14-FA-1C PLATFORM
    EHKV 010725Z AUTO 36036KT 320V030 7000 +DZ FEW023 SCT030 09/05 Q1017
  • EHLE - LELYSTAD AIRPORT
    EHLE 010725Z AUTO 34013KT 310V020 9999 FEW023 BKN027 OVC032 08/07 Q1013 TEMPO 5000 SHRA SCT018CB
    TAF EHLE 010512Z 0106/0212 32010KT 9999 SCT017 BKN030 BECMG 0106/0109 35015G25KT PROB40 TEMPO 0106/0110 35022G35KT 6000 SHRA SCT018CB BKN030 BECMG 0115/0118 02010KT BECMG 0120/0123 06005KT 4500 BR SCT005 BKN008 PROB40 0122/0212 1400 -DZ SCT002 BKN003
  • EHLW - LEEUWARDEN AIR BASE
    EHLW 010740Z AUTO 35018KT 320V020 9999 SCT021 BKN026 OVC029 09/06 Q1014 WHT
    TAF EHLW 010522Z 0106/0118 34016KT 9999 FEW018 BKN035 PROB40 TEMPO 0106/0108 35018G30KT 4000 RA SHRA SCT012 FEW018CB BKN022 BECMG 0107/0109 36012KT
  • EHMA - AWG-1 PLATFORM
    EHMA 010725Z AUTO 36038KT 9999 FEW020 BKN025 OVC028 10/05 Q1012
  • EHMG - L9-FF-1 PLATFORM
    EHMG 010725Z AUTO 35037KT 9999 FEW011 SCT024 BKN035 10/04 Q1015
  • EHPG - P11-B SEA, NETHERLANDS
    EHPG 010725Z AUTO 35023G34KT 280V060 9999 FEW018 FEW025CB SCT026 BKN030 10/04 Q1017 REDZ
  • EHQE - HOORN-A SEA, NETHERLANDS
    EHQE 010725Z AUTO 32038KT 9999 FEW016 BKN032 OVC037 10/05 Q1016
  • EHRD - ROTTERDAM THE HAGUE AIRPORT
    EHRD 010725Z AUTO 35015G25KT 320V030 9000 DZ FEW015CB SCT020 BKN024 09/06 Q1015 TEMPO 6000 SHRA SCT0
    TAF COR EHRD 010517Z 0106/0212 35015G25KT 9999 SCT017 BKN030 TEMPO 0106/0110 35022G35KT 5000 SHRA SCT018CB BKN030 BECMG 0115/0118 04010KT BECMG 0122/0201 03005KT 4500 BR SCT005 BKN008 PROB40 0200/0212 2500 -DZ SCT002 BKN003
  • EHSA - EURO PLATFORM
    EHSA 010725Z AUTO 34035KT 9999 ///////// 10/04 Q1017 W10/H37
  • EHSC - LICHTEILAND GOEREE
    EHSC 010725Z AUTO 36037KT 9999 -RA ///////// 10/05 Q1016 W11/H38
  • EHVK - VOLKEL AIR BASE
    EHVK 010734Z AUTO 31003KT 280V360 2800 DZ BKN002 OVC003 07/07 Q1013 AMB
    TAF EHVK 010538Z 0106/0118 25004KT 8000 SCT012 BKN028 BECMG 0108/0110 32010G20KT 4500 -RA BKN010 PROB40 TEMPO 0108/0110 35012G24KT 3000 RA SHRA SCT005 FEW012CB BKN018 BECMG 0109/0111 36012KT 9999 SCT018 SCT035
  • EHVL - VLIELAND HELIPORT
    EHVL 010730Z AUTO 36025KT 8000 HZ SCT024 BKN036 BKN043 10/05 Q1015 WHT
  • EHWO - WOENSDRECHT AIR BASE
    EHWO 010742Z AUTO 35011KT 290V080 6000 -DZ FEW012 BKN016 OVC019 08/07 Q1015 WHT
    TAF EHWO 010526Z 0106/0118 34010G20KT 4500 -RA SCT010 BKN026 PROB40 TEMPO 0106/0108 35014G26KT 3000 RA SHRA SCT005 FEW012CB BKN018 BECMG 0109/0111 36012KT 9999 FEW018 SCT035
Luxemburg
  • ELLX - LUXEMBOURG FINDEL AIRPORT
    ELLX 010720Z 26007KT 5000 BR FEW003 BKN007 01/01 Q1014 NOSIG
    TAF ELLX 010500Z 0106/0212 24005KT 2000 BR BKN004 TEMPO 0106/0108 0500 FG -SN VV001 BECMG 0106/0108 32008KT 9999 BKN012 TEMPO 0107/0120 3000 RA OVC006 BECMG 0120/0122 0700 FG VV001

Buienradar



Weerbericht - Voorspelling